N8YZF Weather Reports


Display with metric or nautical units.
time (UTC)temp
F
wind
direction
speed
MPH
gust
MPH
rain 1hr
in
rain 24hr
in
rain mn
in
humidity
%
barometer
mb
20180218065214 28 301 6.0 12.0 0.00 0.00 0.00 84 1015.2
20180218064623 28 275 5.0 8.0 0.00 0.00 0.00 84 1015.2
20180218064052 28 272 6.0 7.0 0.00 0.00 0.00 84 1015.0
20180218063511 28 297 7.0 9.0 0.00 0.00 0.00 84 1015.0
20180218063007 28 277 9.0 12.0 0.00 0.00 0.00 84 1014.9
20180218062442 28 331 9.0 14.0 0.00 0.00 0.00 84 1014.9
20180218061907 28 325 8.0 14.0 0.00 0.00 0.00 85 1014.9
20180218061316 28 286 8.0 8.0 0.00 0.00 0.00 86 1014.9
20180218060742 28 280 9.0 12.0 0.00 0.00 0.00 86 1014.9
20180218060154 28 269 10.0 13.0 0.00 0.00 0.00 86 1014.9
20180218055603 28 296 10.0 16.0 0.00 0.00 0.00 86 1014.5
20180218055026 28 281 10.0 19.0 0.00 0.00 0.00 87 1014.5
20180218054500 28 286 11.0 19.0 0.00 0.00 0.00 87 1014.5
20180218053954 28 269 11.0 18.0 0.00 0.00 0.00 86 1013.9
20180218053449 28 292 10.0 18.0 0.00 0.00 0.00 86 1013.9
20180218052934 28 277 11.0 16.0 0.00 0.00 0.00 86 1013.8
20180218052359 28 307 10.0 14.0 0.00 0.00 0.00 86 1013.8
20180218051821 28 300 10.0 21.0 0.00 0.00 0.00 86 1013.8
20180218051231 28 282 11.0 21.0 0.00 0.00 0.00 85 1013.3
20180218050657 28 271 9.0 17.0 0.00 0.00 0.00 85 1013.3
20180218050104 29 267 8.0 12.0 0.00 0.00 0.00 86 1013.3
20180218045504 29 301 10.0 14.0 0.00 0.00 0.00 86 1013.2
20180218045006 29 275 10.0 14.0 0.00 0.00 0.00 86 1013.2
20180218044426 29 271 12.0 17.0 0.00 0.00 0.00 87 1013.2
20180218043849 29 288 12.0 15.0 0.00 0.00 0.00 87 1013.2
20180218043313 29 281 10.0 15.0 0.00 0.00 0.00 87 1013.2
20180218042722 29 271 10.0 16.0 0.00 0.00 0.00 88 1012.7
20180218042144 29 305 9.0 16.0 0.00 0.00 0.00 89 1012.8
20180218041558 29 284 9.0 14.0 0.00 0.00 0.00 89 1012.8
20180218041002 29 275 8.0 12.0 0.00 0.00 0.00 90 1012.7
20180218040458 29 269 7.0 10.0 0.00 0.00 0.00 90 1012.7
20180218035949 29 250 7.0 12.0 0.00 0.00 0.00 91 1012.5
20180218035354 29 275 6.0 8.0 0.00 0.00 0.00 91 1012.4
20180218034820 29 271 6.0 8.0 0.00 0.00 0.00 91 1012.4
20180218034229 29 261 6.0 8.0 0.00 0.00 0.00 91 1012.2
20180218033651 29 242 4.0 6.0 0.00 0.00 0.00 91 1012.2
20180218033056 28 258 1.0 3.0 0.00 0.00 0.00 91 1012.2
20180218032504 28 250 1.0 5.0 0.00 0.00 0.00 91 1012.3
20180218031929 28 263 1.0 6.0 0.00 0.00 0.00 91 1012.3
20180218031338 28 250 1.0 4.0 0.00 0.00 0.00 91 1012.3
20180218030805 28 240 1.0 6.0 0.00 0.00 0.00 91 1012.3
20180218030216 28 257 0.0 3.0 0.00 0.00 0.00 91 1012.3
20180218025620 28 254 2.0 7.0 0.00 0.00 0.00 91 1011.9
20180218025042 28 252 2.0 7.0 0.00 0.00 0.00 91 1011.9
20180218024509 28 236 0.0 1.0 0.00 0.00 0.00 92 1011.9
20180218024008 28 263 1.0 1.0 0.00 0.00 0.00 92 1012.0
20180218023437 28 251 1.0 0.0 0.00 0.00 0.00 92 1012.0
20180218022845 28 248 0.0 0.0 0.00 0.00 0.00 92 1011.8
20180218022311 28 249 0.0 0.0 0.00 0.00 0.00 92 1011.8
20180218021736 28 264 0.0 0.0 0.00 0.00 0.00 92 1011.8
20180218021149 27 254 0.0 0.0 0.00 0.00 0.00 92 1011.7
20180218020611 27 253 0.0 0.0 0.00 0.00 0.00 92 1011.7
20180218020017 27 252 0.0 0.0 0.00 0.00 0.00 92 1011.7
20180218015508 27 253 0.0 2.0 0.00 0.00 0.00 92 1011.3
20180218015001 27 256 0.0 2.0 0.00 0.00 0.00 92 1011.3
20180218014500 27 254 0.0 0.0 0.00 0.00 0.00 92 1011.2
20180218013927 27 254 0.0 0.0 0.00 0.00 0.00 92 1011.2
20180218013355 27 255 0.0 0.0 0.00 0.00 0.00 91 1011.2
20180218012800 27 255 0.0 0.0 0.00 0.00 0.00 91 1011.3
20180218012223 27 255 0.0 0.0 0.00 0.00 0.00 91 1011.3
20180218011631 28 255 0.0 0.0 0.00 0.00 0.00 91 1011.3
20180218011058 28 255 0.0 0.0 0.00 0.00 0.00 91 1011.4
20180218010514 28 255 1.0 3.0 0.00 0.00 0.00 91 1011.4
20180218010001 28 255 2.0 3.0 0.00 0.00 0.00 90 1011.4
20180218005436 28 255 2.0 4.0 0.00 0.00 0.00 90 1011.4
20180218004902 28 255 2.0 4.0 0.00 0.00 0.00 89 1011.4
20180218004312 28 258 2.0 3.0 0.00 0.00 0.00 89 1011.3
20180218003740 28 258 3.0 4.0 0.00 0.00 0.00 88 1011.3
20180218003149 28 256 2.0 4.0 0.00 0.00 0.00 87 1011.3
20180218002610 28 244 2.0 4.0 0.00 0.00 0.00 86 1011.2
20180218002009 28 244 3.0 4.0 0.00 0.00 0.00 85 1011.2
20180218001432 28 243 4.0 5.0 0.00 0.00 0.00 84 1011.1
20180218000858 28 239 5.0 9.0 0.00 0.00 0.00 83 1011.1
20180218000324 28 256 5.0 9.0 0.00 0.00 0.00 82 1011.1
20180217235717 28 240 4.0 8.0 0.00 0.00 0.00 82 1010.9
20180217235142 28 236 6.0 8.0 0.00 0.00 0.00 82 1010.9
20180217234555 28 218 8.0 10.0 0.00 0.00 0.00 82 1010.9
20180217234028 29 224 6.0 10.0 0.00 0.00 0.00 81 1010.8
20180217233515 29 243 6.0 8.0 0.00 0.00 0.00 78 1010.8
20180217232952 29 211 6.0 12.0 0.00 0.00 0.00 77 1010.8
20180217232422 29 209 1.0 12.0 0.00 0.00 0.00 74 1010.8
20180217231849 29 213 2.0 5.0 0.00 0.00 0.00 71 1010.8
20180217231303 29 225 3.0 5.0 0.00 0.00 0.00 70 1010.6
20180217230730 29 236 2.0 4.0 0.00 0.00 0.00 70 1010.6
20180217230139 29 229 3.0 5.0 0.00 0.00 0.00 70 1010.6
20180217225547 29 225 4.0 7.0 0.00 0.00 0.00 69 1010.4
20180217225028 29 229 4.0 7.0 0.00 0.00 0.00 69 1010.4
20180217224514 29 221 4.0 6.0 0.00 0.00 0.00 69 1010.1
20180217223938 29 219 4.0 6.0 0.00 0.00 0.00 68 1010.1
20180217223401 29 227 3.0 5.0 0.00 0.00 0.00 68 1010.1
20180217222813 30 240 3.0 5.0 0.00 0.00 0.00 68 1010.1
20180217222239 30 249 3.0 8.0 0.00 0.00 0.00 68 1010.1
20180217221721 30 248 4.0 8.0 0.00 0.00 0.00 68 1010.1
20180217221213 30 209 6.0 8.0 0.00 0.00 0.00 67 1010.5
20180217220634 30 242 6.0 10.0 0.00 0.00 0.00 68 1010.5
20180217220043 30 214 6.0 10.0 0.00 0.00 0.00 66 1010.5
20180217215518 30 213 5.0 10.0 0.00 0.00 0.00 65 1010.9
20180217215011 30 226 4.0 10.0 0.00 0.00 0.00 65 1010.9
20180217214508 30 217 3.0 6.0 0.00 0.00 0.00 66 1010.9
20180217213943 30 231 3.0 6.0 0.00 0.00 0.00 66 1010.9
20180217213405 30 232 4.0 6.0 0.00 0.00 0.00 66 1010.9
20180217212813 30 212 5.0 7.0 0.00 0.00 0.00 67 1010.9
20180217212243 30 216 6.0 11.0 0.00 0.00 0.00 66 1010.9
20180217211656 29 250 7.0 11.0 0.00 0.00 0.00 66 1010.8
20180217211125 29 221 6.0 11.0 0.00 0.00 0.00 67 1010.9
20180217210539 29 223 6.0 11.0 0.00 0.00 0.00 66 1010.9
20180217210016 29 238 6.0 13.0 0.00 0.00 0.00 66 1010.9
20180217205452 29 255 6.0 10.0 0.00 0.00 0.00 65 1011.0
20180217204921 29 223 6.0 10.0 0.00 0.00 0.00 66 1011.0
20180217204327 29 218 7.0 10.0 0.00 0.00 0.00 65 1010.7
20180217203751 29 227 3.0 10.0 0.00 0.00 0.00 65 1010.7
20180217203201 29 221 0.0 0.0 0.00 0.00 0.00 66 1010.7
20180217202623 29 207 4.0 6.0 0.00 0.00 0.00 65 1010.4
20180217202048 29 208 5.0 7.0 0.00 0.00 0.00 65 1010.4
20180217201515 29 233 4.0 7.0 0.00 0.00 0.00 66 1010.4
20180217201007 29 247 3.0 6.0 0.00 0.00 0.00 65 1010.7
20180217200431 29 214 4.0 7.0 0.00 0.00 0.00 66 1010.7
20180217195844 29 208 5.0 7.0 0.00 0.00 0.00 65 1010.9
20180217195247 29 217 6.0 8.0 0.00 0.00 0.00 66 1010.9
20180217194731 29 222 8.0 14.0 0.00 0.00 0.00 66 1010.9
20180217194232 29 250 9.0 14.0 0.00 0.00 0.00 64 1011.5
20180217193656 29 204 8.0 12.0 0.00 0.00 0.00 64 1011.5
20180217193110 29 232 8.0 11.0 0.00 0.00 0.00 65 1011.5
20180217192532 29 242 8.0 12.0 0.00 0.00 0.00 64 1011.8
20180217192032 29 214 6.0 12.0 0.00 0.00 0.00 64 1011.8
20180217191458 29 226 6.0 11.0 0.00 0.00 0.00 64 1011.7
20180217190926 29 223 4.0 15.0 0.00 0.00 0.00 64 1011.7
20180217190349 29 218 5.0 15.0 0.00 0.00 0.00 65 1011.7
20180217185802 29 200 6.0 11.0 0.00 0.00 0.00 64 1012.1
20180217185211 29 227 7.0 11.0 0.00 0.00 0.00 64 1012.1
20180217184618 30 242 7.0 10.0 0.00 0.00 0.00 63 1012.1
20180217184029 30 237 6.0 10.0 0.00 0.00 0.00 62 1012.4
20180217183527 30 224 6.0 10.0 0.00 0.00 0.00 62 1012.4
20180217183012 30 198 7.0 10.0 0.00 0.00 0.00 62 1012.6
20180217182439 30 236 7.0 10.0 0.00 0.00 0.00 61 1012.6
20180217181905 30 228 7.0 10.0 0.00 0.00 0.00 61 1012.6
20180217181313 30 218 6.0 10.0 0.00 0.00 0.00 61 1013.0
20180217180746 30 228 7.0 9.0 0.00 0.00 0.00 62 1013.0
20180217180231 30 232 7.0 10.0 0.00 0.00 0.00 61 1013.0
20180217175702 30 203 6.0 10.0 0.00 0.00 0.00 60 1013.5
20180217175130 30 227 5.0 12.0 0.00 0.00 0.00 61 1013.5
20180217174524 30 249 5.0 12.0 0.00 0.00 0.00 62 1013.7
20180217173950 30 236 7.0 14.0 0.00 0.00 0.00 62 1013.5
20180217173422 29 256 7.0 13.0 0.00 0.00 0.00 60 1013.5
20180217172834 29 264 7.0 10.0 0.00 0.00 0.00 62 1013.9
20180217172301 29 224 7.0 10.0 0.00 0.00 0.00 62 1013.9
20180217171707 29 217 7.0 10.0 0.00 0.00 0.00 63 1013.9
20180217171137 28 234 7.0 11.0 0.00 0.00 0.00 63 1014.0
20180217170537 28 219 7.0 14.0 0.00 0.00 0.00 63 1014.0
20180217165959 28 226 5.0 8.0 0.00 0.00 0.00 64 1014.1
20180217165407 28 239 4.0 7.0 0.00 0.00 0.00 67 1014.1
20180217164830 28 213 2.0 6.0 0.00 0.00 0.00 69 1014.1
20180217164240 28 211 3.0 5.0 0.00 0.00 0.00 70 1014.3
20180217163709 27 208 4.0 8.0 0.00 0.00 0.00 73 1014.2
20180217163121 26 205 5.0 8.0 0.00 0.00 0.00 74 1014.2
20180217162541 26 209 5.0 8.0 0.00 0.00 0.00 74 1014.4
20180217162032 26 215 5.0 7.0 0.00 0.00 0.00 76 1014.4
20180217161513 25 221 5.0 8.0 0.00 0.00 0.00 75 1014.4
20180217160938 25 195 7.0 9.0 0.00 0.00 0.00 76 1014.4
20180217160402 25 214 6.0 9.0 0.00 0.00 0.00 76 1014.4
20180217155810 25 198 5.0 7.0 0.00 0.00 0.00 77 1014.4
20180217155218 24 205 6.0 9.0 0.00 0.00 0.00 77 1014.4
20180217154628 24 187 5.0 10.0 0.00 0.00 0.00 78 1014.4
20180217154032 24 188 6.0 14.0 0.00 0.00 0.00 78 1014.7
20180217153526 24 165 6.0 14.0 0.00 0.00 0.00 78 1014.7
20180217153022 23 203 3.0 6.0 0.00 0.00 0.00 80 1014.7
20180217152446 23 216 4.0 7.0 0.00 0.00 0.00 80 1014.7
20180217151914 23 217 5.0 7.0 0.00 0.00 0.00 80 1014.6
20180217151323 22 217 5.0 8.0 0.00 0.00 0.00 80 1015.0
20180217150747 22 210 6.0 9.0 0.00 0.00 0.00 81 1015.0
20180217150224 22 215 7.0 9.0 0.00 0.00 0.00 81 1015.0
20180217145707 22 213 7.0 8.0 0.00 0.00 0.00 81 1015.2
20180217145131 22 201 5.0 9.0 0.00 0.00 0.00 82 1015.1
20180217144543 21 208 5.0 8.0 0.00 0.00 0.00 83 1015.1
20180217144033 21 207 5.0 8.0 0.00 0.00 0.00 83 1015.2
20180217143525 21 207 6.0 8.0 0.00 0.00 0.00 83 1015.2
20180217143025 21 209 5.0 6.0 0.00 0.00 0.00 83 1015.2
20180217142504 20 204 4.0 9.0 0.00 0.00 0.00 84 1015.1
20180217141931 20 201 4.0 9.0 0.00 0.00 0.00 85 1015.0
20180217141339 20 194 3.0 9.0 0.00 0.00 0.00 85 1015.5
20180217140810 20 197 1.0 9.0 0.00 0.00 0.00 86 1015.5
20180217140221 20 194 0.0 0.0 0.00 0.00 0.00 86 1015.4
20180217135631 19 192 1.0 0.0 0.00 0.00 0.00 86 1015.7
20180217135038 19 189 2.0 4.0 0.00 0.00 0.00 87 1015.7
20180217134448 19 193 1.0 4.0 0.00 0.00 0.00 87 1015.7
20180217133917 18 196 0.0 5.0 0.00 0.00 0.00 87 1015.6
20180217133340 18 181 0.0 5.0 0.00 0.00 0.00 87 1015.6
20180217132747 18 199 1.0 3.0 0.00 0.00 0.00 88 1015.7
20180217132215 17 200 0.0 3.0 0.00 0.00 0.00 88 1015.7
20180217131623 17 200 1.0 3.0 0.00 0.00 0.00 88 1015.7
20180217131044 17 200 1.0 4.0 0.00 0.00 0.00 88 1015.7
20180217130538 17 200 1.0 4.0 0.00 0.00 0.00 88 1015.7
20180217130016 17 201 1.0 9.0 0.00 0.00 0.00 88 1015.8
20180217125433 16 206 1.0 9.0 0.00 0.00 0.00 88 1015.8
20180217124854 16 220 0.0 0.0 0.00 0.00 0.00 88 1015.8
20180217124308 16 245 0.0 0.0 0.00 0.00 0.00 88 1015.6
20180217123732 16 254 0.0 0.0 0.00 0.00 0.00 88 1015.5
20180217123145 15 257 0.0 0.0 0.00 0.00 0.00 88 1015.5
20180217122525 15 257 0.0 0.0 0.00 0.00 0.00 88 1015.5
20180217122025 15 257 0.0 0.0 0.00 0.00 0.00 87 1015.5
20180217121436 15 257 0.0 0.0 0.00 0.00 0.00 87 1016.0
20180217120902 15 257 0.0 0.0 0.00 0.00 0.00 87 1016.0
20180217120326 15 257 0.0 0.0 0.00 0.00 0.00 87 1016.0
20180217115713 15 257 0.0 0.0 0.00 0.00 0.00 87 1015.6
20180217115137 15 257 0.0 0.0 0.00 0.00 0.00 87 1015.6
20180217114524 15 257 0.0 0.0 0.00 0.00 0.00 87 1015.5
20180217113959 15 257 0.0 0.0 0.00 0.00 0.00 87 1015.5
20180217113424 15 257 0.0 0.0 0.00 0.00 0.00 87 1015.5
20180217112832 15 257 0.0 0.0 0.00 0.00 0.00 87 1015.6
20180217112259 15 257 0.0 0.0 0.00 0.00 0.00 87 1015.6
20180217111714 15 257 0.0 0.0 0.00 0.00 0.00 87 1015.6
20180217111139 15 257 0.0 0.0 0.00 0.00 0.00 87 1015.6
20180217110603 14 257 0.0 0.0 0.00 0.00 0.00 87 1015.6
20180217110002 14 257 0.0 0.0 0.00 0.00 0.00 87 1016.0
20180217105417 14 257 0.0 0.0 0.00 0.00 0.00 87 1016.0
20180217104842 14 259 0.0 0.0 0.00 0.00 0.00 87 1016.0
20180217104250 14 263 0.0 0.0 0.00 0.00 0.00 88 1015.9
20180217103654 14 264 0.0 0.0 0.00 0.00 0.00 87 1015.9
20180217103036 14 264 0.0 0.0 0.00 0.00 0.00 88 1015.8
20180217102511 14 264 0.0 0.0 0.00 0.00 0.00 88 1015.8
20180217101934 13 264 0.0 0.0 0.00 0.00 0.00 88 1015.8
20180217101345 13 264 0.0 0.0 0.00 0.00 0.00 88 1016.0
20180217100811 13 264 0.0 0.0 0.00 0.00 0.00 87 1016.0
20180217100224 13 264 0.0 0.0 0.00 0.00 0.00 87 1016.0
20180217095636 13 264 0.0 0.0 0.00 0.00 0.00 87 1016.2
20180217095109 13 264 0.0 0.0 0.00 0.00 0.00 87 1016.2
20180217094603 13 265 0.0 0.0 0.00 0.00 0.00 87 1016.2
20180217094029 13 265 0.0 0.0 0.00 0.00 0.00 87 1016.3
20180217093455 13 265 0.0 0.0 0.00 0.00 0.00 87 1016.3
20180217092906 13 265 0.0 0.0 0.00 0.00 0.00 87 1016.8
20180217092338 13 265 0.0 0.0 0.00 0.00 0.00 88 1016.8
20180217091741 13 265 0.0 0.0 0.00 0.00 0.00 87 1016.8
20180217091202 13 265 0.0 0.0 0.00 0.00 0.00 87 1016.9
20180217090607 13 265 0.0 0.0 0.00 0.00 0.00 88 1016.8
20180217090048 13 265 0.0 0.0 0.00 0.00 0.00 87 1016.8
20180217085529 13 265 0.0 0.0 0.00 0.00 0.00 88 1017.3
20180217085000 13 265 0.0 0.0 0.00 0.00 0.00 88 1017.3
20180217084405 12 265 0.0 0.0 0.00 0.00 0.00 88 1017.4
20180217083835 12 265 0.0 0.0 0.00 0.00 0.00 88 1017.4
20180217083243 12 265 0.0 0.0 0.00 0.00 0.00 88 1017.4
20180217082707 12 265 0.0 0.0 0.00 0.00 0.00 88 1017.4
20180217082131 12 265 0.0 0.0 0.00 0.00 0.00 87 1017.4
20180217081534 13 265 0.0 0.0 0.00 0.00 0.00 87 1017.4
20180217081002 13 265 0.0 0.0 0.00 0.00 0.00 87 1017.4
20180217080429 13 265 0.0 0.0 0.00 0.00 0.00 86 1017.4
20180217075839 13 265 0.0 0.0 0.00 0.00 0.00 86 1017.5
20180217075249 13 265 0.0 0.0 0.00 0.00 0.00 86 1017.5
20180217074702 13 265 0.0 0.0 0.00 0.00 0.00 86 1017.5
20180217074054 13 265 0.0 0.0 0.00 0.00 0.00 86 1017.7
20180217073542 13 265 0.0 0.0 0.00 0.00 0.00 86 1017.8
20180217073001 14 265 0.0 0.0 0.00 0.00 0.00 86 1017.9
20180217072422 13 265 0.0 0.0 0.00 0.00 0.00 86 1017.8
20180217071849 13 265 0.0 0.0 0.00 0.00 0.00 86 1017.8
20180217071301 13 266 0.0 0.0 0.00 0.00 0.00 87 1017.9
20180217070729 13 267 0.0 0.0 0.00 0.00 0.00 86 1017.9
20180217070137 13 267 0.0 0.0 0.00 0.00 0.00 86 1017.9